ENQC weather

Public forecast

Using degrees Celsius for public forecast. Weather courtesy of forecast.io.

Current aviation weather report (METAR) for Troll C Platform

Retrieved 2020/08/12 00:20 UTC (23 minutes ago):

ENQC 120020Z AUTO 03004KT 9999NDV SCT089/// 16/14 Q1022 W///S3

Closest aviation forecast (TAF) to Troll C Platform

Closest forecast is Oseberg A Platform, 33.0 nm (61.2 km) SW. Retrieved 2020-08-12 00:57 UTC (0 seconds ago):

TAF ENOA 112300Z 1200/1224 10010KT CAVOK BECMG 1209/1211 16015KT PROB40 TEMPO 1221/1224 4000 TSRA BKN014CB